sensor_id;sensor_type;location;lat;lon;timestamp;P1;durP1;ratioP1;P2;durP2;ratioP2
5379;SDS011;2713;42.680;23.310;2023-03-16T00:00:11;1.00;;;1.00;;
5379;SDS011;2713;42.680;23.310;2023-03-16T00:02:40;0.77;;;0.77;;
5379;SDS011;2713;42.680;23.310;2023-03-16T00:05:07;0.80;;;0.80;;
5379;SDS011;2713;42.680;23.310;2023-03-16T00:07:35;0.70;;;0.70;;
5379;SDS011;2713;42.680;23.310;2023-03-16T00:10:01;1.00;;;1.00;;
5379;SDS011;2713;42.680;23.310;2023-03-16T00:12:28;1.05;;;0.90;;
5379;SDS011;2713;42.680;23.310;2023-03-16T00:14:59;0.70;;;0.70;;
5379;SDS011;2713;42.680;23.310;2023-03-16T00:17:26;0.80;;;0.80;;
5379;SDS011;2713;42.680;23.310;2023-03-16T00:19:55;0.90;;;0.90;;
5379;SDS011;2713;42.680;23.310;2023-03-16T00:22:24;0.70;;;0.70;;
5379;SDS011;2713;42.680;23.310;2023-03-16T00:24:51;0.90;;;0.90;;
5379;SDS011;2713;42.680;23.310;2023-03-16T00:27:19;0.70;;;0.70;;
5379;SDS011;2713;42.680;23.310;2023-03-16T00:29:50;0.95;;;0.85;;
5379;SDS011;2713;42.680;23.310;2023-03-16T00:32:20;0.95;;;0.80;;
5379;SDS011;2713;42.680;23.310;2023-03-16T00:34:48;0.80;;;0.80;;
5379;SDS011;2713;42.680;23.310;2023-03-16T00:37:17;0.80;;;0.80;;
5379;SDS011;2713;42.680;23.310;2023-03-16T00:39:47;0.80;;;0.80;;
5379;SDS011;2713;42.680;23.310;2023-03-16T00:42:15;1.00;;;1.00;;
5379;SDS011;2713;42.680;23.310;2023-03-16T00:44:43;1.48;;;1.38;;
5379;SDS011;2713;42.680;23.310;2023-03-16T00:47:10;0.80;;;0.80;;
5379;SDS011;2713;42.680;23.310;2023-03-16T00:49:39;0.70;;;0.70;;
5379;SDS011;2713;42.680;23.310;2023-03-16T00:52:08;1.05;;;0.80;;
5379;SDS011;2713;42.680;23.310;2023-03-16T00:54:40;0.80;;;0.80;;
5379;SDS011;2713;42.680;23.310;2023-03-16T00:57:08;0.90;;;0.90;;
5379;SDS011;2713;42.680;23.310;2023-03-16T00:59:36;0.90;;;0.90;;
5379;SDS011;2713;42.680;23.310;2023-03-16T01:02:03;1.08;;;1.08;;
5379;SDS011;2713;42.680;23.310;2023-03-16T01:04:31;0.80;;;0.80;;
5379;SDS011;2713;42.680;23.310;2023-03-16T01:07:00;1.00;;;0.90;;
5379;SDS011;2713;42.680;23.310;2023-03-16T01:09:27;0.90;;;0.80;;
5379;SDS011;2713;42.680;23.310;2023-03-16T01:11:55;0.70;;;0.70;;
5379;SDS011;2713;42.680;23.310;2023-03-16T01:14:22;0.82;;;0.82;;
5379;SDS011;2713;42.680;23.310;2023-03-16T01:16:49;0.80;;;0.80;;
5379;SDS011;2713;42.680;23.310;2023-03-16T01:19:16;0.70;;;0.70;;
5379;SDS011;2713;42.680;23.310;2023-03-16T01:21:43;0.80;;;0.80;;
5379;SDS011;2713;42.680;23.310;2023-03-16T01:24:09;0.93;;;0.93;;
5379;SDS011;2713;42.680;23.310;2023-03-16T01:26:38;0.90;;;0.90;;
5379;SDS011;2713;42.680;23.310;2023-03-16T01:29:06;0.80;;;0.80;;
5379;SDS011;2713;42.680;23.310;2023-03-16T01:31:33;0.90;;;0.90;;
5379;SDS011;2713;42.680;23.310;2023-03-16T01:34:00;0.90;;;0.90;;
5379;SDS011;2713;42.680;23.310;2023-03-16T01:36:29;1.13;;;1.00;;
5379;SDS011;2713;42.680;23.310;2023-03-16T01:39:00;1.10;;;1.00;;
5379;SDS011;2713;42.680;23.310;2023-03-16T01:41:34;0.98;;;0.98;;
5379;SDS011;2713;42.680;23.310;2023-03-16T01:44:01;0.80;;;0.80;;
5379;SDS011;2713;42.680;23.310;2023-03-16T01:46:30;1.20;;;1.10;;
5379;SDS011;2713;42.680;23.310;2023-03-16T01:49:00;1.00;;;1.00;;
5379;SDS011;2713;42.680;23.310;2023-03-16T01:51:34;1.38;;;1.00;;
5379;SDS011;2713;42.680;23.310;2023-03-16T01:54:08;0.80;;;0.80;;
5379;SDS011;2713;42.680;23.310;2023-03-16T01:56:42;1.00;;;0.90;;
5379;SDS011;2713;42.680;23.310;2023-03-16T01:59:15;0.82;;;0.82;;
5379;SDS011;2713;42.680;23.310;2023-03-16T02:01:47;0.70;;;0.70;;
5379;SDS011;2713;42.680;23.310;2023-03-16T02:04:21;1.00;;;1.00;;
5379;SDS011;2713;42.680;23.310;2023-03-16T02:06:59;0.82;;;0.75;;
5379;SDS011;2713;42.680;23.310;2023-03-16T02:09:28;0.80;;;0.80;;
5379;SDS011;2713;42.680;23.310;2023-03-16T02:11:57;0.80;;;0.80;;
5379;SDS011;2713;42.680;23.310;2023-03-16T02:14:26;0.75;;;0.75;;
5379;SDS011;2713;42.680;23.310;2023-03-16T02:16:54;0.90;;;0.90;;
5379;SDS011;2713;42.680;23.310;2023-03-16T02:19:25;0.90;;;0.90;;
5379;SDS011;2713;42.680;23.310;2023-03-16T02:22:03;1.08;;;1.05;;
5379;SDS011;2713;42.680;23.310;2023-03-16T02:24:33;1.20;;;0.90;;
5379;SDS011;2713;42.680;23.310;2023-03-16T02:27:01;0.70;;;0.70;;
5379;SDS011;2713;42.680;23.310;2023-03-16T02:29:53;0.73;;;0.73;;
5379;SDS011;2713;42.680;23.310;2023-03-16T02:32:27;1.17;;;0.60;;
5379;SDS011;2713;42.680;23.310;2023-03-16T02:34:59;0.63;;;0.63;;
5379;SDS011;2713;42.680;23.310;2023-03-16T02:37:28;0.70;;;0.70;;
5379;SDS011;2713;42.680;23.310;2023-03-16T02:39:58;0.70;;;0.70;;
5379;SDS011;2713;42.680;23.310;2023-03-16T02:42:26;0.80;;;0.80;;
5379;SDS011;2713;42.680;23.310;2023-03-16T02:44:58;0.73;;;0.73;;
5379;SDS011;2713;42.680;23.310;2023-03-16T02:47:32;0.85;;;0.80;;
5379;SDS011;2713;42.680;23.310;2023-03-16T02:50:03;0.90;;;0.90;;
5379;SDS011;2713;42.680;23.310;2023-03-16T02:52:31;0.70;;;0.70;;
5379;SDS011;2713;42.680;23.310;2023-03-16T02:54:59;0.80;;;0.80;;
5379;SDS011;2713;42.680;23.310;2023-03-16T02:57:26;0.70;;;0.70;;
5379;SDS011;2713;42.680;23.310;2023-03-16T02:59:59;0.80;;;0.80;;
5379;SDS011;2713;42.680;23.310;2023-03-16T03:02:27;0.73;;;0.73;;
5379;SDS011;2713;42.680;23.310;2023-03-16T03:04:54;0.80;;;0.80;;
5379;SDS011;2713;42.680;23.310;2023-03-16T03:07:24;0.88;;;0.85;;
5379;SDS011;2713;42.680;23.310;2023-03-16T03:10:00;0.85;;;0.85;;
5379;SDS011;2713;42.680;23.310;2023-03-16T03:12:30;0.88;;;0.88;;
5379;SDS011;2713;42.680;23.310;2023-03-16T03:14:58;0.95;;;0.82;;
5379;SDS011;2713;42.680;23.310;2023-03-16T03:17:31;1.00;;;1.00;;
5379;SDS011;2713;42.680;23.310;2023-03-16T03:19:58;0.80;;;0.80;;
5379;SDS011;2713;42.680;23.310;2023-03-16T03:22:32;0.88;;;0.88;;
5379;SDS011;2713;42.680;23.310;2023-03-16T03:24:59;0.82;;;0.82;;
5379;SDS011;2713;42.680;23.310;2023-03-16T03:27:27;0.85;;;0.85;;
5379;SDS011;2713;42.680;23.310;2023-03-16T03:29:54;0.90;;;0.90;;
5379;SDS011;2713;42.680;23.310;2023-03-16T03:32:22;0.75;;;0.75;;
5379;SDS011;2713;42.680;23.310;2023-03-16T03:34:48;0.77;;;0.77;;
5379;SDS011;2713;42.680;23.310;2023-03-16T03:37:17;0.98;;;0.98;;
5379;SDS011;2713;42.680;23.310;2023-03-16T03:39:44;0.90;;;0.90;;
5379;SDS011;2713;42.680;23.310;2023-03-16T03:42:12;0.90;;;0.90;;
5379;SDS011;2713;42.680;23.310;2023-03-16T03:44:40;0.77;;;0.77;;
5379;SDS011;2713;42.680;23.310;2023-03-16T03:47:06;0.90;;;0.90;;
5379;SDS011;2713;42.680;23.310;2023-03-16T03:49:35;1.67;;;1.00;;
5379;SDS011;2713;42.680;23.310;2023-03-16T03:52:01;1.80;;;1.70;;
5379;SDS011;2713;42.680;23.310;2023-03-16T03:54:29;2.20;;;2.10;;
5379;SDS011;2713;42.680;23.310;2023-03-16T03:56:59;1.95;;;1.85;;
5379;SDS011;2713;42.680;23.310;2023-03-16T03:59:27;1.80;;;1.70;;
5379;SDS011;2713;42.680;23.310;2023-03-16T04:02:23;1.27;;;1.20;;
5379;SDS011;2713;42.680;23.310;2023-03-16T04:04:54;1.10;;;1.00;;
5379;SDS011;2713;42.680;23.310;2023-03-16T04:07:21;0.80;;;0.80;;
5379;SDS011;2713;42.680;23.310;2023-03-16T04:09:51;0.80;;;0.70;;
5379;SDS011;2713;42.680;23.310;2023-03-16T04:12:27;0.60;;;0.60;;
5379;SDS011;2713;42.680;23.310;2023-03-16T04:14:54;0.60;;;0.52;;
5379;SDS011;2713;42.680;23.310;2023-03-16T04:17:23;0.70;;;0.70;;
5379;SDS011;2713;42.680;23.310;2023-03-16T04:19:50;0.60;;;0.60;;
5379;SDS011;2713;42.680;23.310;2023-03-16T04:22:19;0.63;;;0.63;;
5379;SDS011;2713;42.680;23.310;2023-03-16T04:24:47;0.60;;;0.60;;
5379;SDS011;2713;42.680;23.310;2023-03-16T04:27:16;0.80;;;0.80;;
5379;SDS011;2713;42.680;23.310;2023-03-16T04:29:44;0.80;;;0.70;;
5379;SDS011;2713;42.680;23.310;2023-03-16T04:32:11;0.80;;;0.70;;
5379;SDS011;2713;42.680;23.310;2023-03-16T04:34:39;1.63;;;0.70;;
5379;SDS011;2713;42.680;23.310;2023-03-16T04:37:09;2.67;;;2.47;;
5379;SDS011;2713;42.680;23.310;2023-03-16T04:39:42;0.77;;;0.77;;
5379;SDS011;2713;42.680;23.310;2023-03-16T04:42:10;0.77;;;0.77;;
5379;SDS011;2713;42.680;23.310;2023-03-16T04:44:37;0.63;;;0.63;;
5379;SDS011;2713;42.680;23.310;2023-03-16T04:47:09;0.90;;;0.90;;
5379;SDS011;2713;42.680;23.310;2023-03-16T04:49:39;0.77;;;0.77;;
5379;SDS011;2713;42.680;23.310;2023-03-16T04:52:08;0.70;;;0.70;;
5379;SDS011;2713;42.680;23.310;2023-03-16T04:54:40;1.20;;;1.10;;
5379;SDS011;2713;42.680;23.310;2023-03-16T04:57:11;0.70;;;0.70;;
5379;SDS011;2713;42.680;23.310;2023-03-16T04:59:44;0.77;;;0.77;;
5379;SDS011;2713;42.680;23.310;2023-03-16T05:02:25;1.10;;;0.90;;
5379;SDS011;2713;42.680;23.310;2023-03-16T05:04:53;1.10;;;1.00;;
5379;SDS011;2713;42.680;23.310;2023-03-16T05:07:20;1.00;;;1.00;;
5379;SDS011;2713;42.680;23.310;2023-03-16T05:09:52;0.80;;;0.80;;
5379;SDS011;2713;42.680;23.310;2023-03-16T05:12:19;1.00;;;1.00;;
5379;SDS011;2713;42.680;23.310;2023-03-16T05:14:51;0.90;;;0.90;;
5379;SDS011;2713;42.680;23.310;2023-03-16T05:17:44;0.80;;;0.80;;
5379;SDS011;2713;42.680;23.310;2023-03-16T05:20:12;0.90;;;0.90;;
5379;SDS011;2713;42.680;23.310;2023-03-16T05:22:44;2.45;;;1.50;;
5379;SDS011;2713;42.680;23.310;2023-03-16T05:25:20;0.80;;;0.80;;
5379;SDS011;2713;42.680;23.310;2023-03-16T05:27:51;1.17;;;1.08;;
5379;SDS011;2713;42.680;23.310;2023-03-16T05:30:33;1.30;;;1.20;;
5379;SDS011;2713;42.680;23.310;2023-03-16T05:33:03;1.20;;;1.10;;
5379;SDS011;2713;42.680;23.310;2023-03-16T05:35:30;1.45;;;1.35;;
5379;SDS011;2713;42.680;23.310;2023-03-16T05:38:02;1.40;;;1.30;;
5379;SDS011;2713;42.680;23.310;2023-03-16T05:40:33;1.27;;;1.17;;
5379;SDS011;2713;42.680;23.310;2023-03-16T05:43:27;6.00;;;5.00;;
5379;SDS011;2713;42.680;23.310;2023-03-16T05:45:54;4.72;;;1.60;;
5379;SDS011;2713;42.680;23.310;2023-03-16T05:48:21;1.20;;;1.13;;
5379;SDS011;2713;42.680;23.310;2023-03-16T05:50:52;1.25;;;1.15;;
5379;SDS011;2713;42.680;23.310;2023-03-16T05:53:24;1.35;;;1.25;;
5379;SDS011;2713;42.680;23.310;2023-03-16T05:55:55;1.15;;;1.05;;
5379;SDS011;2713;42.680;23.310;2023-03-16T05:58:22;1.08;;;1.00;;
5379;SDS011;2713;42.680;23.310;2023-03-16T06:00:50;1.05;;;1.05;;
5379;SDS011;2713;42.680;23.310;2023-03-16T06:03:22;1.30;;;1.20;;
5379;SDS011;2713;42.680;23.310;2023-03-16T06:05:51;4.32;;;1.70;;
5379;SDS011;2713;42.680;23.310;2023-03-16T06:08:25;1.58;;;1.48;;
5379;SDS011;2713;42.680;23.310;2023-03-16T06:10:56;1.45;;;1.10;;
5379;SDS011;2713;42.680;23.310;2023-03-16T06:13:22;0.90;;;0.90;;
5379;SDS011;2713;42.680;23.310;2023-03-16T06:15:49;1.40;;;1.30;;
5379;SDS011;2713;42.680;23.310;2023-03-16T06:18:16;1.58;;;1.40;;
5379;SDS011;2713;42.680;23.310;2023-03-16T06:20:44;1.52;;;1.13;;
5379;SDS011;2713;42.680;23.310;2023-03-16T06:23:11;1.27;;;1.17;;
5379;SDS011;2713;42.680;23.310;2023-03-16T06:25:39;1.30;;;1.20;;
5379;SDS011;2713;42.680;23.310;2023-03-16T06:28:08;1.52;;;1.42;;
5379;SDS011;2713;42.680;23.310;2023-03-16T06:30:35;1.60;;;1.50;;
5379;SDS011;2713;42.680;23.310;2023-03-16T06:33:02;1.42;;;1.33;;
5379;SDS011;2713;42.680;23.310;2023-03-16T06:35:29;1.70;;;1.60;;
5379;SDS011;2713;42.680;23.310;2023-03-16T06:38:10;1.70;;;1.60;;
5379;SDS011;2713;42.680;23.310;2023-03-16T06:41:06;1.40;;;1.30;;
5379;SDS011;2713;42.680;23.310;2023-03-16T06:43:35;2.55;;;1.35;;
5379;SDS011;2713;42.680;23.310;2023-03-16T06:46:02;1.50;;;1.40;;
5379;SDS011;2713;42.680;23.310;2023-03-16T06:48:29;2.08;;;1.65;;
5379;SDS011;2713;42.680;23.310;2023-03-16T06:50:56;1.38;;;1.27;;
5379;SDS011;2713;42.680;23.310;2023-03-16T06:53:26;1.73;;;1.63;;
5379;SDS011;2713;42.680;23.310;2023-03-16T06:55:54;1.83;;;1.73;;
5379;SDS011;2713;42.680;23.310;2023-03-16T06:58:21;1.58;;;1.48;;
5379;SDS011;2713;42.680;23.310;2023-03-16T07:00:49;1.60;;;1.50;;
5379;SDS011;2713;42.680;23.310;2023-03-16T07:03:18;1.50;;;1.40;;
5379;SDS011;2713;42.680;23.310;2023-03-16T07:05:51;1.50;;;1.40;;
5379;SDS011;2713;42.680;23.310;2023-03-16T07:08:18;1.55;;;1.45;;
5379;SDS011;2713;42.680;23.310;2023-03-16T07:10:45;2.85;;;1.40;;
5379;SDS011;2713;42.680;23.310;2023-03-16T07:13:12;1.80;;;1.70;;
5379;SDS011;2713;42.680;23.310;2023-03-16T07:15:39;1.70;;;1.60;;
5379;SDS011;2713;42.680;23.310;2023-03-16T07:18:08;1.60;;;1.50;;
5379;SDS011;2713;42.680;23.310;2023-03-16T07:20:36;2.25;;;1.90;;
5379;SDS011;2713;42.680;23.310;2023-03-16T07:23:05;2.28;;;2.10;;
5379;SDS011;2713;42.680;23.310;2023-03-16T07:25:33;1.80;;;1.70;;
5379;SDS011;2713;42.680;23.310;2023-03-16T07:28:01;1.70;;;1.60;;
5379;SDS011;2713;42.680;23.310;2023-03-16T07:30:33;2.50;;;1.90;;
5379;SDS011;2713;42.680;23.310;2023-03-16T07:33:00;4.32;;;1.90;;
5379;SDS011;2713;42.680;23.310;2023-03-16T07:35:28;3.78;;;2.53;;
5379;SDS011;2713;42.680;23.310;2023-03-16T07:37:55;2.10;;;2.00;;
5379;SDS011;2713;42.680;23.310;2023-03-16T07:40:26;1.63;;;1.52;;
5379;SDS011;2713;42.680;23.310;2023-03-16T07:42:58;1.73;;;1.63;;
5379;SDS011;2713;42.680;23.310;2023-03-16T07:45:32;1.90;;;1.80;;
5379;SDS011;2713;42.680;23.310;2023-03-16T07:47:59;1.85;;;1.75;;
5379;SDS011;2713;42.680;23.310;2023-03-16T07:50:53;2.03;;;1.92;;
5379;SDS011;2713;42.680;23.310;2023-03-16T07:53:21;1.77;;;1.67;;
5379;SDS011;2713;42.680;23.310;2023-03-16T07:55:52;2.00;;;1.90;;
5379;SDS011;2713;42.680;23.310;2023-03-16T07:58:19;1.75;;;1.65;;
5379;SDS011;2713;42.680;23.310;2023-03-16T08:00:47;1.65;;;1.55;;
5379;SDS011;2713;42.680;23.310;2023-03-16T08:03:15;1.90;;;1.80;;
5379;SDS011;2713;42.680;23.310;2023-03-16T08:05:43;2.10;;;1.90;;
5379;SDS011;2713;42.680;23.310;2023-03-16T08:08:14;3.03;;;2.70;;
5379;SDS011;2713;42.680;23.310;2023-03-16T08:10:42;1.90;;;1.48;;
5379;SDS011;2713;42.680;23.310;2023-03-16T08:13:12;1.60;;;1.50;;
5379;SDS011;2713;42.680;23.310;2023-03-16T08:15:44;2.00;;;1.90;;
5379;SDS011;2713;42.680;23.310;2023-03-16T08:18:22;1.85;;;1.75;;
5379;SDS011;2713;42.680;23.310;2023-03-16T08:20:50;2.35;;;1.92;;
5379;SDS011;2713;42.680;23.310;2023-03-16T08:23:19;2.53;;;2.33;;
5379;SDS011;2713;42.680;23.310;2023-03-16T08:25:46;1.85;;;1.75;;
5379;SDS011;2713;42.680;23.310;2023-03-16T08:28:17;1.60;;;1.50;;
5379;SDS011;2713;42.680;23.310;2023-03-16T08:30:46;1.70;;;1.30;;
5379;SDS011;2713;42.680;23.310;2023-03-16T08:33:43;1.80;;;1.70;;
5379;SDS011;2713;42.680;23.310;2023-03-16T08:36:13;1.50;;;1.20;;
5379;SDS011;2713;42.680;23.310;2023-03-16T08:38:47;1.70;;;1.60;;
5379;SDS011;2713;42.680;23.310;2023-03-16T08:41:14;2.42;;;1.83;;
5379;SDS011;2713;42.680;23.310;2023-03-16T08:43:44;1.50;;;1.40;;
5379;SDS011;2713;42.680;23.310;2023-03-16T08:46:11;1.90;;;1.80;;
5379;SDS011;2713;42.680;23.310;2023-03-16T08:48:45;2.20;;;1.80;;
5379;SDS011;2713;42.680;23.310;2023-03-16T08:51:13;1.70;;;1.60;;
5379;SDS011;2713;42.680;23.310;2023-03-16T08:53:40;1.80;;;1.70;;
5379;SDS011;2713;42.680;23.310;2023-03-16T08:56:10;1.77;;;1.67;;
5379;SDS011;2713;42.680;23.310;2023-03-16T08:58:39;1.50;;;1.40;;
5379;SDS011;2713;42.680;23.310;2023-03-16T09:01:09;1.30;;;1.20;;
5379;SDS011;2713;42.680;23.310;2023-03-16T09:03:37;1.48;;;1.38;;
5379;SDS011;2713;42.680;23.310;2023-03-16T09:06:05;2.65;;;1.58;;
5379;SDS011;2713;42.680;23.310;2023-03-16T09:08:35;1.48;;;1.38;;
5379;SDS011;2713;42.680;23.310;2023-03-16T09:11:04;1.83;;;1.58;;
5379;SDS011;2713;42.680;23.310;2023-03-16T09:13:34;1.95;;;1.50;;
5379;SDS011;2713;42.680;23.310;2023-03-16T09:16:03;2.00;;;1.90;;
5379;SDS011;2713;42.680;23.310;2023-03-16T09:18:30;2.00;;;1.90;;
5379;SDS011;2713;42.680;23.310;2023-03-16T09:20:59;1.95;;;1.70;;
5379;SDS011;2713;42.680;23.310;2023-03-16T09:23:27;2.30;;;2.10;;
5379;SDS011;2713;42.680;23.310;2023-03-16T09:25:56;2.80;;;2.60;;
5379;SDS011;2713;42.680;23.310;2023-03-16T09:28:23;2.60;;;2.40;;
5379;SDS011;2713;42.680;23.310;2023-03-16T09:30:53;2.58;;;2.00;;
5379;SDS011;2713;42.680;23.310;2023-03-16T09:33:20;2.95;;;2.00;;
5379;SDS011;2713;42.680;23.310;2023-03-16T09:35:48;1.70;;;1.60;;
5379;SDS011;2713;42.680;23.310;2023-03-16T09:38:16;2.40;;;2.20;;
5379;SDS011;2713;42.680;23.310;2023-03-16T09:40:43;2.05;;;1.95;;
5379;SDS011;2713;42.680;23.310;2023-03-16T09:43:15;1.70;;;1.60;;
5379;SDS011;2713;42.680;23.310;2023-03-16T09:45:57;2.42;;;1.60;;
5379;SDS011;2713;42.680;23.310;2023-03-16T09:48:31;1.52;;;1.42;;
5379;SDS011;2713;42.680;23.310;2023-03-16T09:51:00;1.85;;;1.75;;
5379;SDS011;2713;42.680;23.310;2023-03-16T09:53:33;2.45;;;2.30;;
5379;SDS011;2713;42.680;23.310;2023-03-16T09:56:05;2.83;;;2.63;;
5379;SDS011;2713;42.680;23.310;2023-03-16T09:58:35;4.43;;;3.00;;
5379;SDS011;2713;42.680;23.310;2023-03-16T10:01:06;3.17;;;2.85;;
5379;SDS011;2713;42.680;23.310;2023-03-16T10:06:50;3.45;;;2.85;;
5379;SDS011;2713;42.680;23.310;2023-03-16T10:09:28;5.13;;;3.03;;
5379;SDS011;2713;42.680;23.310;2023-03-16T10:12:02;3.30;;;3.00;;
5379;SDS011;2713;42.680;23.310;2023-03-16T10:14:36;3.10;;;2.80;;
5379;SDS011;2713;42.680;23.310;2023-03-16T10:17:08;2.50;;;2.35;;
5379;SDS011;2713;42.680;23.310;2023-03-16T10:19:42;14.85;;;10.65;;
5379;SDS011;2713;42.680;23.310;2023-03-16T10:22:15;3.00;;;2.80;;
5379;SDS011;2713;42.680;23.310;2023-03-16T10:24:49;3.45;;;2.70;;
5379;SDS011;2713;42.680;23.310;2023-03-16T10:27:27;2.50;;;2.38;;
5379;SDS011;2713;42.680;23.310;2023-03-16T10:29:55;2.90;;;2.70;;
5379;SDS011;2713;42.680;23.310;2023-03-16T10:32:23;2.80;;;2.60;;
5379;SDS011;2713;42.680;23.310;2023-03-16T10:34:55;2.72;;;2.53;;
5379;SDS011;2713;42.680;23.310;2023-03-16T10:37:25;2.88;;;2.63;;
5379;SDS011;2713;42.680;23.310;2023-03-16T10:39:57;3.60;;;3.30;;
5379;SDS011;2713;42.680;23.310;2023-03-16T10:42:25;3.10;;;2.90;;
5379;SDS011;2713;42.680;23.310;2023-03-16T10:44:55;4.30;;;4.00;;
5379;SDS011;2713;42.680;23.310;2023-03-16T10:47:27;3.30;;;3.00;;
5379;SDS011;2713;42.680;23.310;2023-03-16T10:49:55;2.70;;;2.50;;
5379;SDS011;2713;42.680;23.310;2023-03-16T10:52:23;2.60;;;2.40;;
5379;SDS011;2713;42.680;23.310;2023-03-16T10:54:57;3.80;;;3.10;;
5379;SDS011;2713;42.680;23.310;2023-03-16T10:57:29;2.83;;;2.63;;
5379;SDS011;2713;42.680;23.310;2023-03-16T10:59:58;3.20;;;2.90;;
5379;SDS011;2713;42.680;23.310;2023-03-16T11:02:32;4.50;;;3.33;;
5379;SDS011;2713;42.680;23.310;2023-03-16T11:05:10;3.72;;;3.42;;
5379;SDS011;2713;42.680;23.310;2023-03-16T11:07:46;3.28;;;2.97;;
5379;SDS011;2713;42.680;23.310;2023-03-16T11:10:23;3.03;;;2.83;;
5379;SDS011;2713;42.680;23.310;2023-03-16T11:12:53;2.97;;;2.78;;
5379;SDS011;2713;42.680;23.310;2023-03-16T11:15:20;3.70;;;3.40;;
5379;SDS011;2713;42.680;23.310;2023-03-16T11:17:50;3.40;;;3.20;;
5379;SDS011;2713;42.680;23.310;2023-03-16T11:20:20;2.22;;;2.13;;
5379;SDS011;2713;42.680;23.310;2023-03-16T11:22:51;3.20;;;2.45;;
5379;SDS011;2713;42.680;23.310;2023-03-16T11:25:18;3.10;;;2.80;;
5379;SDS011;2713;42.680;23.310;2023-03-16T11:27:52;2.67;;;2.47;;
5379;SDS011;2713;42.680;23.310;2023-03-16T11:30:28;5.03;;;2.90;;
5379;SDS011;2713;42.680;23.310;2023-03-16T11:33:02;3.40;;;3.10;;
5379;SDS011;2713;42.680;23.310;2023-03-16T11:35:35;3.47;;;3.28;;
5379;SDS011;2713;42.680;23.310;2023-03-16T11:38:12;3.20;;;3.00;;
5379;SDS011;2713;42.680;23.310;2023-03-16T11:40:44;3.40;;;3.20;;
5379;SDS011;2713;42.680;23.310;2023-03-16T11:43:35;3.25;;;2.97;;
5379;SDS011;2713;42.680;23.310;2023-03-16T11:46:16;3.55;;;3.22;;
5379;SDS011;2713;42.680;23.310;2023-03-16T11:48:59;3.65;;;2.90;;
5379;SDS011;2713;42.680;23.310;2023-03-16T11:51:40;3.10;;;2.90;;
5379;SDS011;2713;42.680;23.310;2023-03-16T11:54:16;3.38;;;3.08;;
5379;SDS011;2713;42.680;23.310;2023-03-16T11:57:02;3.33;;;3.03;;
5379;SDS011;2713;42.680;23.310;2023-03-16T11:59:43;7.95;;;3.85;;
5379;SDS011;2713;42.680;23.310;2023-03-16T12:02:37;4.72;;;3.35;;
5379;SDS011;2713;42.680;23.310;2023-03-16T12:08:23;3.80;;;3.17;;
5379;SDS011;2713;42.680;23.310;2023-03-16T12:11:00;3.95;;;3.75;;
5379;SDS011;2713;42.680;23.310;2023-03-16T12:13:36;6.00;;;4.75;;
5379;SDS011;2713;42.680;23.310;2023-03-16T12:16:14;3.75;;;3.45;;
5379;SDS011;2713;42.680;23.310;2023-03-16T12:18:47;3.53;;;3.10;;
5379;SDS011;2713;42.680;23.310;2023-03-16T12:21:19;3.70;;;3.40;;
5379;SDS011;2713;42.680;23.310;2023-03-16T12:23:50;3.90;;;3.50;;
5379;SDS011;2713;42.680;23.310;2023-03-16T12:26:20;5.32;;;3.65;;
5379;SDS011;2713;42.680;23.310;2023-03-16T12:28:49;7.68;;;4.20;;
5379;SDS011;2713;42.680;23.310;2023-03-16T12:31:19;4.40;;;4.00;;
5379;SDS011;2713;42.680;23.310;2023-03-16T12:33:57;4.53;;;4.13;;
5379;SDS011;2713;42.680;23.310;2023-03-16T12:36:37;3.97;;;3.67;;
5379;SDS011;2713;42.680;23.310;2023-03-16T12:39:16;7.93;;;7.15;;
5379;SDS011;2713;42.680;23.310;2023-03-16T12:41:54;3.97;;;3.55;;
5379;SDS011;2713;42.680;23.310;2023-03-16T12:44:31;7.05;;;3.53;;
5379;SDS011;2713;42.680;23.310;2023-03-16T12:47:06;4.53;;;4.03;;
5379;SDS011;2713;42.680;23.310;2023-03-16T12:49:42;4.50;;;3.92;;
5379;SDS011;2713;42.680;23.310;2023-03-16T12:52:11;6.70;;;4.97;;
5379;SDS011;2713;42.680;23.310;2023-03-16T12:54:47;4.35;;;3.95;;
5379;SDS011;2713;42.680;23.310;2023-03-16T12:57:17;4.80;;;4.38;;
5379;SDS011;2713;42.680;23.310;2023-03-16T12:59:45;4.20;;;3.80;;
5379;SDS011;2713;42.680;23.310;2023-03-16T13:02:15;4.75;;;4.25;;
5379;SDS011;2713;42.680;23.310;2023-03-16T13:04:45;6.05;;;4.95;;
5379;SDS011;2713;42.680;23.310;2023-03-16T13:07:17;5.30;;;4.80;;
5379;SDS011;2713;42.680;23.310;2023-03-16T13:09:48;5.03;;;4.63;;
5379;SDS011;2713;42.680;23.310;2023-03-16T13:12:21;5.90;;;5.35;;
5379;SDS011;2713;42.680;23.310;2023-03-16T13:14:50;7.35;;;4.68;;
5379;SDS011;2713;42.680;23.310;2023-03-16T13:17:26;6.55;;;5.05;;
5379;SDS011;2713;42.680;23.310;2023-03-16T13:20:02;6.95;;;5.25;;
5379;SDS011;2713;42.680;23.310;2023-03-16T13:22:41;8.05;;;5.07;;
5379;SDS011;2713;42.680;23.310;2023-03-16T13:25:12;5.70;;;5.20;;
5379;SDS011;2713;42.680;23.310;2023-03-16T13:27:43;5.55;;;4.95;;
5379;SDS011;2713;42.680;23.310;2023-03-16T13:30:16;8.10;;;5.47;;
5379;SDS011;2713;42.680;23.310;2023-03-16T13:32:45;6.30;;;5.40;;
5379;SDS011;2713;42.680;23.310;2023-03-16T13:35:14;6.57;;;5.97;;
5379;SDS011;2713;42.680;23.310;2023-03-16T13:37:53;5.93;;;5.32;;
5379;SDS011;2713;42.680;23.310;2023-03-16T13:40:21;7.43;;;6.30;;
5379;SDS011;2713;42.680;23.310;2023-03-16T13:42:51;9.13;;;6.15;;
5379;SDS011;2713;42.680;23.310;2023-03-16T13:45:21;6.63;;;5.97;;
5379;SDS011;2713;42.680;23.310;2023-03-16T13:47:49;9.70;;;7.38;;
5379;SDS011;2713;42.680;23.310;2023-03-16T13:50:17;7.35;;;6.65;;
5379;SDS011;2713;42.680;23.310;2023-03-16T13:52:50;7.90;;;6.10;;
5379;SDS011;2713;42.680;23.310;2023-03-16T13:55:24;8.02;;;6.40;;
5379;SDS011;2713;42.680;23.310;2023-03-16T13:57:55;8.48;;;7.68;;
5379;SDS011;2713;42.680;23.310;2023-03-16T14:00:23;8.98;;;7.72;;
5379;SDS011;2713;42.680;23.310;2023-03-16T14:02:52;11.50;;;5.30;;
5379;SDS011;2713;42.680;23.310;2023-03-16T14:05:20;7.53;;;5.65;;
5379;SDS011;2713;42.680;23.310;2023-03-16T14:07:50;6.55;;;5.85;;
5379;SDS011;2713;42.680;23.310;2023-03-16T14:10:20;6.80;;;6.10;;
5379;SDS011;2713;42.680;23.310;2023-03-16T14:12:51;7.30;;;6.15;;
5379;SDS011;2713;42.680;23.310;2023-03-16T14:15:19;6.57;;;5.90;;
5379;SDS011;2713;42.680;23.310;2023-03-16T14:17:48;8.65;;;6.90;;
5379;SDS011;2713;42.680;23.310;2023-03-16T14:20:16;8.80;;;6.53;;
5379;SDS011;2713;42.680;23.310;2023-03-16T14:22:46;8.55;;;7.15;;
5379;SDS011;2713;42.680;23.310;2023-03-16T14:25:18;10.55;;;7.75;;
5379;SDS011;2713;42.680;23.310;2023-03-16T14:27:55;10.15;;;7.40;;
5379;SDS011;2713;42.680;23.310;2023-03-16T14:30:24;9.30;;;8.05;;
5379;SDS011;2713;42.680;23.310;2023-03-16T14:32:53;11.75;;;8.88;;
5379;SDS011;2713;42.680;23.310;2023-03-16T14:35:24;10.43;;;8.60;;
5379;SDS011;2713;42.680;23.310;2023-03-16T14:37:53;9.95;;;8.30;;
5379;SDS011;2713;42.680;23.310;2023-03-16T14:40:25;11.20;;;8.75;;
5379;SDS011;2713;42.680;23.310;2023-03-16T14:42:54;9.45;;;7.30;;
5379;SDS011;2713;42.680;23.310;2023-03-16T14:45:23;10.10;;;8.05;;
5379;SDS011;2713;42.680;23.310;2023-03-16T14:47:59;10.93;;;7.70;;
5379;SDS011;2713;42.680;23.310;2023-03-16T14:50:29;9.13;;;7.60;;
5379;SDS011;2713;42.680;23.310;2023-03-16T14:52:57;9.25;;;7.75;;
5379;SDS011;2713;42.680;23.310;2023-03-16T14:55:27;13.00;;;9.57;;
5379;SDS011;2713;42.680;23.310;2023-03-16T14:57:54;12.32;;;10.27;;
5379;SDS011;2713;42.680;23.310;2023-03-16T15:00:21;12.07;;;9.48;;
5379;SDS011;2713;42.680;23.310;2023-03-16T15:02:52;10.10;;;8.25;;
5379;SDS011;2713;42.680;23.310;2023-03-16T15:05:24;10.00;;;7.60;;
5379;SDS011;2713;42.680;23.310;2023-03-16T15:07:56;12.50;;;8.90;;
5379;SDS011;2713;42.680;23.310;2023-03-16T15:10:23;9.93;;;8.25;;
5379;SDS011;2713;42.680;23.310;2023-03-16T15:12:54;10.70;;;8.50;;
5379;SDS011;2713;42.680;23.310;2023-03-16T15:15:28;8.60;;;7.40;;
5379;SDS011;2713;42.680;23.310;2023-03-16T15:17:56;7.25;;;6.55;;
5379;SDS011;2713;42.680;23.310;2023-03-16T15:20:24;9.40;;;8.23;;
5379;SDS011;2713;42.680;23.310;2023-03-16T15:22:56;10.98;;;8.57;;
5379;SDS011;2713;42.680;23.310;2023-03-16T15:25:24;9.20;;;7.85;;
5379;SDS011;2713;42.680;23.310;2023-03-16T15:28:01;10.80;;;8.40;;